sensor_id;sensor_type;location;lat;lon;timestamp;temperature;humidity
44461;DHT22;30162;53.642;10.640;2022-08-19T00:01:23;23.70;92.20
44461;DHT22;30162;53.642;10.640;2022-08-19T00:03:50;23.70;92.00
44461;DHT22;30162;53.642;10.640;2022-08-19T00:06:15;23.70;91.90
44461;DHT22;30162;53.642;10.640;2022-08-19T00:08:41;23.90;91.90
44461;DHT22;30162;53.642;10.640;2022-08-19T00:11:07;23.90;91.70
44461;DHT22;30162;53.642;10.640;2022-08-19T00:13:33;23.70;92.00
44461;DHT22;30162;53.642;10.640;2022-08-19T00:15:59;23.70;92.10
44461;DHT22;30162;53.642;10.640;2022-08-19T00:18:25;23.60;92.30
44461;DHT22;30162;53.642;10.640;2022-08-19T00:20:51;23.50;92.20
44461;DHT22;30162;53.642;10.640;2022-08-19T00:23:16;23.40;92.60
44461;DHT22;30162;53.642;10.640;2022-08-19T00:25:42;23.40;92.70
44461;DHT22;30162;53.642;10.640;2022-08-19T00:28:07;23.40;92.80
44461;DHT22;30162;53.642;10.640;2022-08-19T00:30:33;23.30;92.60
44461;DHT22;30162;53.642;10.640;2022-08-19T00:32:59;23.40;92.70
44461;DHT22;30162;53.642;10.640;2022-08-19T00:35:25;23.40;92.60
44461;DHT22;30162;53.642;10.640;2022-08-19T00:37:52;23.30;92.90
44461;DHT22;30162;53.642;10.640;2022-08-19T00:40:18;23.30;92.90
44461;DHT22;30162;53.642;10.640;2022-08-19T00:42:44;23.40;92.90
44461;DHT22;30162;53.642;10.640;2022-08-19T00:45:19;23.50;92.80
44461;DHT22;30162;53.642;10.640;2022-08-19T00:47:46;23.50;92.60
44461;DHT22;30162;53.642;10.640;2022-08-19T00:50:15;23.40;92.80
44461;DHT22;30162;53.642;10.640;2022-08-19T00:52:45;23.50;92.80
44461;DHT22;30162;53.642;10.640;2022-08-19T00:55:30;23.50;92.60
44461;DHT22;30162;53.642;10.640;2022-08-19T00:58:01;23.30;93.00
44461;DHT22;30162;53.642;10.640;2022-08-19T01:00:30;23.40;93.10
44461;DHT22;30162;53.642;10.640;2022-08-19T01:02:56;23.40;93.20
44461;DHT22;30162;53.642;10.640;2022-08-19T01:05:27;23.30;93.30
44461;DHT22;30162;53.642;10.640;2022-08-19T01:07:54;23.30;93.50
44461;DHT22;30162;53.642;10.640;2022-08-19T01:10:25;23.30;93.40
44461;DHT22;30162;53.642;10.640;2022-08-19T01:12:52;23.30;93.60
44461;DHT22;30162;53.642;10.640;2022-08-19T01:15:23;23.30;93.50
44461;DHT22;30162;53.642;10.640;2022-08-19T01:17:50;23.30;93.40
44461;DHT22;30162;53.642;10.640;2022-08-19T01:20:20;23.30;93.50
44461;DHT22;30162;53.642;10.640;2022-08-19T01:22:52;23.40;93.50
44461;DHT22;30162;53.642;10.640;2022-08-19T01:25:20;23.40;93.40
44461;DHT22;30162;53.642;10.640;2022-08-19T01:27:49;23.40;93.30
44461;DHT22;30162;53.642;10.640;2022-08-19T01:30:20;23.50;93.20
44461;DHT22;30162;53.642;10.640;2022-08-19T01:32:48;23.40;93.40
44461;DHT22;30162;53.642;10.640;2022-08-19T01:35:13;23.50;93.30
44461;DHT22;30162;53.642;10.640;2022-08-19T01:37:48;23.50;93.10
44461;DHT22;30162;53.642;10.640;2022-08-19T01:40:16;23.50;93.20
44461;DHT22;30162;53.642;10.640;2022-08-19T01:42:42;23.50;93.40
44461;DHT22;30162;53.642;10.640;2022-08-19T01:45:08;23.40;93.50
44461;DHT22;30162;53.642;10.640;2022-08-19T01:47:35;23.40;93.20
44461;DHT22;30162;53.642;10.640;2022-08-19T01:50:01;23.50;93.20
44461;DHT22;30162;53.642;10.640;2022-08-19T01:52:27;23.60;93.10
44461;DHT22;30162;53.642;10.640;2022-08-19T01:54:53;23.40;93.20
44461;DHT22;30162;53.642;10.640;2022-08-19T01:57:18;23.40;93.40
44461;DHT22;30162;53.642;10.640;2022-08-19T01:59:44;23.40;93.40
44461;DHT22;30162;53.642;10.640;2022-08-19T02:02:10;23.50;93.30
44461;DHT22;30162;53.642;10.640;2022-08-19T02:04:37;23.40;93.40
44461;DHT22;30162;53.642;10.640;2022-08-19T02:07:06;23.40;93.50
44461;DHT22;30162;53.642;10.640;2022-08-19T02:09:34;23.30;93.50
44461;DHT22;30162;53.642;10.640;2022-08-19T02:12:00;23.30;93.50
44461;DHT22;30162;53.642;10.640;2022-08-19T02:14:26;23.40;93.60
44461;DHT22;30162;53.642;10.640;2022-08-19T02:16:51;23.40;93.60
44461;DHT22;30162;53.642;10.640;2022-08-19T02:19:17;23.40;93.70
44461;DHT22;30162;53.642;10.640;2022-08-19T02:21:42;23.50;93.30
44461;DHT22;30162;53.642;10.640;2022-08-19T02:24:09;23.50;93.30
44461;DHT22;30162;53.642;10.640;2022-08-19T02:26:34;23.60;93.20
44461;DHT22;30162;53.642;10.640;2022-08-19T02:29:00;23.70;93.10
44461;DHT22;30162;53.642;10.640;2022-08-19T02:31:26;23.60;93.10
44461;DHT22;30162;53.642;10.640;2022-08-19T02:33:53;23.50;93.30
44461;DHT22;30162;53.642;10.640;2022-08-19T02:36:20;23.60;93.50
44461;DHT22;30162;53.642;10.640;2022-08-19T02:38:45;23.50;93.50
44461;DHT22;30162;53.642;10.640;2022-08-19T02:41:16;23.40;93.60
44461;DHT22;30162;53.642;10.640;2022-08-19T02:43:42;23.40;93.50
44461;DHT22;30162;53.642;10.640;2022-08-19T02:46:22;23.40;93.70
44461;DHT22;30162;53.642;10.640;2022-08-19T02:48:51;23.40;93.70
44461;DHT22;30162;53.642;10.640;2022-08-19T02:51:20;23.50;93.70
44461;DHT22;30162;53.642;10.640;2022-08-19T02:53:46;23.60;93.50
44461;DHT22;30162;53.642;10.640;2022-08-19T02:56:11;23.60;93.20
44461;DHT22;30162;53.642;10.640;2022-08-19T02:58:37;23.60;93.30
44461;DHT22;30162;53.642;10.640;2022-08-19T03:01:03;23.50;93.40
44461;DHT22;30162;53.642;10.640;2022-08-19T03:03:28;23.40;93.50
44461;DHT22;30162;53.642;10.640;2022-08-19T03:06:10;23.40;93.60
44461;DHT22;30162;53.642;10.640;2022-08-19T03:08:39;23.40;93.60
44461;DHT22;30162;53.642;10.640;2022-08-19T03:11:05;23.40;93.70
44461;DHT22;30162;53.642;10.640;2022-08-19T03:13:31;23.10;94.00
44461;DHT22;30162;53.642;10.640;2022-08-19T03:15:57;23.10;94.20
44461;DHT22;30162;53.642;10.640;2022-08-19T03:18:22;23.30;94.20
44461;DHT22;30162;53.642;10.640;2022-08-19T03:20:50;23.20;94.10
44461;DHT22;30162;53.642;10.640;2022-08-19T03:23:17;23.20;94.20
44461;DHT22;30162;53.642;10.640;2022-08-19T03:25:45;23.30;94.10
44461;DHT22;30162;53.642;10.640;2022-08-19T03:28:13;23.40;94.00
44461;DHT22;30162;53.642;10.640;2022-08-19T03:30:40;23.20;94.20
44461;DHT22;30162;53.642;10.640;2022-08-19T03:33:07;23.20;94.30
44461;DHT22;30162;53.642;10.640;2022-08-19T03:35:32;23.20;94.50
44461;DHT22;30162;53.642;10.640;2022-08-19T03:37:59;23.30;94.50
44461;DHT22;30162;53.642;10.640;2022-08-19T03:40:25;23.30;94.20
44461;DHT22;30162;53.642;10.640;2022-08-19T03:42:50;23.30;94.50
44461;DHT22;30162;53.642;10.640;2022-08-19T03:45:16;23.40;94.30
44461;DHT22;30162;53.642;10.640;2022-08-19T03:47:42;23.50;94.00
44461;DHT22;30162;53.642;10.640;2022-08-19T03:50:07;23.50;94.00
44461;DHT22;30162;53.642;10.640;2022-08-19T03:52:34;23.30;94.10
44461;DHT22;30162;53.642;10.640;2022-08-19T03:55:01;23.30;94.10
44461;DHT22;30162;53.642;10.640;2022-08-19T03:57:27;23.40;94.00
44461;DHT22;30162;53.642;10.640;2022-08-19T03:59:52;23.40;94.10
44461;DHT22;30162;53.642;10.640;2022-08-19T04:02:18;23.40;94.30
44461;DHT22;30162;53.642;10.640;2022-08-19T04:04:44;23.40;94.30
44461;DHT22;30162;53.642;10.640;2022-08-19T04:07:10;23.40;94.20
44461;DHT22;30162;53.642;10.640;2022-08-19T04:09:36;23.40;94.40
44461;DHT22;30162;53.642;10.640;2022-08-19T04:12:03;23.30;94.30
44461;DHT22;30162;53.642;10.640;2022-08-19T04:14:30;23.40;94.30
44461;DHT22;30162;53.642;10.640;2022-08-19T04:16:58;23.40;94.00
44461;DHT22;30162;53.642;10.640;2022-08-19T04:19:24;23.40;94.00
44461;DHT22;30162;53.642;10.640;2022-08-19T04:21:53;23.30;94.20
44461;DHT22;30162;53.642;10.640;2022-08-19T04:24:19;23.30;94.50
44461;DHT22;30162;53.642;10.640;2022-08-19T04:26:46;23.40;94.40
44461;DHT22;30162;53.642;10.640;2022-08-19T04:29:15;23.40;94.20
44461;DHT22;30162;53.642;10.640;2022-08-19T04:31:42;23.40;94.00
44461;DHT22;30162;53.642;10.640;2022-08-19T04:34:11;23.30;94.30
44461;DHT22;30162;53.642;10.640;2022-08-19T04:36:38;23.40;94.20
44461;DHT22;30162;53.642;10.640;2022-08-19T04:39:11;23.40;94.20
44461;DHT22;30162;53.642;10.640;2022-08-19T04:41:37;23.40;94.20
44461;DHT22;30162;53.642;10.640;2022-08-19T04:44:21;23.20;94.50
44461;DHT22;30162;53.642;10.640;2022-08-19T04:46:48;23.20;94.70
44461;DHT22;30162;53.642;10.640;2022-08-19T04:49:16;23.20;94.50
44461;DHT22;30162;53.642;10.640;2022-08-19T04:51:45;23.30;94.60
44461;DHT22;30162;53.642;10.640;2022-08-19T04:54:13;23.20;94.30
44461;DHT22;30162;53.642;10.640;2022-08-19T04:56:39;23.30;94.40
44461;DHT22;30162;53.642;10.640;2022-08-19T04:59:05;23.50;94.20
44461;DHT22;30162;53.642;10.640;2022-08-19T05:01:32;23.40;94.20
44461;DHT22;30162;53.642;10.640;2022-08-19T05:03:59;23.30;94.20
44461;DHT22;30162;53.642;10.640;2022-08-19T05:06:26;23.30;94.20
44461;DHT22;30162;53.642;10.640;2022-08-19T05:08:54;23.40;94.30
44461;DHT22;30162;53.642;10.640;2022-08-19T05:11:24;23.30;94.50
44461;DHT22;30162;53.642;10.640;2022-08-19T05:13:51;23.30;94.60
44461;DHT22;30162;53.642;10.640;2022-08-19T05:16:20;23.30;94.50
44461;DHT22;30162;53.642;10.640;2022-08-19T05:18:46;23.40;94.30
44461;DHT22;30162;53.642;10.640;2022-08-19T05:21:30;23.40;94.50
44461;DHT22;30162;53.642;10.640;2022-08-19T05:24:15;23.40;94.30
44461;DHT22;30162;53.642;10.640;2022-08-19T05:26:46;23.40;94.40
44461;DHT22;30162;53.642;10.640;2022-08-19T05:29:13;23.40;94.40
44461;DHT22;30162;53.642;10.640;2022-08-19T05:31:39;23.40;94.30
44461;DHT22;30162;53.642;10.640;2022-08-19T05:34:05;23.40;94.50
44461;DHT22;30162;53.642;10.640;2022-08-19T05:36:36;23.40;94.50
44461;DHT22;30162;53.642;10.640;2022-08-19T05:39:05;23.50;94.10
44461;DHT22;30162;53.642;10.640;2022-08-19T05:41:30;23.50;94.10
44461;DHT22;30162;53.642;10.640;2022-08-19T05:43:57;23.50;94.30
44461;DHT22;30162;53.642;10.640;2022-08-19T05:46:23;23.40;94.30
44461;DHT22;30162;53.642;10.640;2022-08-19T05:48:48;23.30;94.60
44461;DHT22;30162;53.642;10.640;2022-08-19T05:51:14;23.30;94.50
44461;DHT22;30162;53.642;10.640;2022-08-19T05:53:41;23.30;94.50
44461;DHT22;30162;53.642;10.640;2022-08-19T05:56:09;23.30;94.40
44461;DHT22;30162;53.642;10.640;2022-08-19T05:58:36;23.30;94.50
44461;DHT22;30162;53.642;10.640;2022-08-19T06:01:03;23.30;94.60
44461;DHT22;30162;53.642;10.640;2022-08-19T06:03:34;23.40;94.40
44461;DHT22;30162;53.642;10.640;2022-08-19T06:06:03;23.40;94.50
44461;DHT22;30162;53.642;10.640;2022-08-19T06:08:28;23.50;94.30
44461;DHT22;30162;53.642;10.640;2022-08-19T06:10:55;23.30;94.50
44461;DHT22;30162;53.642;10.640;2022-08-19T06:13:21;23.40;94.60
44461;DHT22;30162;53.642;10.640;2022-08-19T06:15:48;23.50;94.60
44461;DHT22;30162;53.642;10.640;2022-08-19T06:18:14;23.50;94.40
44461;DHT22;30162;53.642;10.640;2022-08-19T06:20:40;23.60;93.90
44461;DHT22;30162;53.642;10.640;2022-08-19T06:23:06;23.60;94.10
44461;DHT22;30162;53.642;10.640;2022-08-19T06:25:32;23.60;94.30
44461;DHT22;30162;53.642;10.640;2022-08-19T06:27:57;23.60;94.20
44461;DHT22;30162;53.642;10.640;2022-08-19T06:30:23;23.70;94.10
44461;DHT22;30162;53.642;10.640;2022-08-19T06:32:48;23.80;94.00
44461;DHT22;30162;53.642;10.640;2022-08-19T06:35:15;23.60;94.10
44461;DHT22;30162;53.642;10.640;2022-08-19T06:37:42;23.60;94.30
44461;DHT22;30162;53.642;10.640;2022-08-19T06:40:08;23.60;94.20
44461;DHT22;30162;53.642;10.640;2022-08-19T06:42:36;23.60;93.90
44461;DHT22;30162;53.642;10.640;2022-08-19T06:45:04;23.60;94.00
44461;DHT22;30162;53.642;10.640;2022-08-19T06:47:31;23.50;94.30
44461;DHT22;30162;53.642;10.640;2022-08-19T06:49:59;23.50;94.40
44461;DHT22;30162;53.642;10.640;2022-08-19T06:52:30;23.50;94.30
44461;DHT22;30162;53.642;10.640;2022-08-19T06:54:56;23.50;94.30
44461;DHT22;30162;53.642;10.640;2022-08-19T06:57:22;23.60;94.20
44461;DHT22;30162;53.642;10.640;2022-08-19T06:59:48;23.70;94.20
44461;DHT22;30162;53.642;10.640;2022-08-19T07:02:13;23.60;94.20
44461;DHT22;30162;53.642;10.640;2022-08-19T07:04:39;23.60;94.30
44461;DHT22;30162;53.642;10.640;2022-08-19T07:07:10;23.50;94.40
44461;DHT22;30162;53.642;10.640;2022-08-19T07:09:39;23.50;94.50
44461;DHT22;30162;53.642;10.640;2022-08-19T07:12:07;23.60;94.50
44461;DHT22;30162;53.642;10.640;2022-08-19T07:14:33;23.70;94.20
44461;DHT22;30162;53.642;10.640;2022-08-19T07:17:04;23.70;94.20
44461;DHT22;30162;53.642;10.640;2022-08-19T07:19:30;23.70;94.20
44461;DHT22;30162;53.642;10.640;2022-08-19T07:21:56;23.60;94.40
44461;DHT22;30162;53.642;10.640;2022-08-19T07:24:24;23.60;94.40
44461;DHT22;30162;53.642;10.640;2022-08-19T07:26:51;23.60;94.40
44461;DHT22;30162;53.642;10.640;2022-08-19T07:29:18;23.70;94.40
44461;DHT22;30162;53.642;10.640;2022-08-19T07:31:44;23.70;94.40
44461;DHT22;30162;53.642;10.640;2022-08-19T07:34:11;23.80;94.30
44461;DHT22;30162;53.642;10.640;2022-08-19T07:36:41;23.80;94.40
44461;DHT22;30162;53.642;10.640;2022-08-19T07:39:25;23.80;94.50
44461;DHT22;30162;53.642;10.640;2022-08-19T07:41:52;23.80;94.70
44461;DHT22;30162;53.642;10.640;2022-08-19T07:44:19;23.80;94.20
44461;DHT22;30162;53.642;10.640;2022-08-19T07:46:48;23.70;94.40
44461;DHT22;30162;53.642;10.640;2022-08-19T07:49:15;23.60;94.30
44461;DHT22;30162;53.642;10.640;2022-08-19T07:51:51;23.60;94.60
44461;DHT22;30162;53.642;10.640;2022-08-19T07:54:19;23.50;94.70
44461;DHT22;30162;53.642;10.640;2022-08-19T07:56:46;23.60;94.80
44461;DHT22;30162;53.642;10.640;2022-08-19T07:59:12;23.60;94.60
44461;DHT22;30162;53.642;10.640;2022-08-19T08:01:39;23.50;94.80
44461;DHT22;30162;53.642;10.640;2022-08-19T08:04:06;23.50;94.90
44461;DHT22;30162;53.642;10.640;2022-08-19T08:06:51;23.70;94.80
44461;DHT22;30162;53.642;10.640;2022-08-19T08:09:38;23.70;94.60
44461;DHT22;30162;53.642;10.640;2022-08-19T08:12:05;23.60;94.60
44461;DHT22;30162;53.642;10.640;2022-08-19T08:14:52;23.60;94.70
44461;DHT22;30162;53.642;10.640;2022-08-19T08:17:21;23.60;94.80
44461;DHT22;30162;53.642;10.640;2022-08-19T08:19:47;23.60;94.90
44461;DHT22;30162;53.642;10.640;2022-08-19T08:22:15;23.50;95.00
44461;DHT22;30162;53.642;10.640;2022-08-19T08:25:06;23.50;95.00
44461;DHT22;30162;53.642;10.640;2022-08-19T08:27:35;23.60;94.90
44461;DHT22;30162;53.642;10.640;2022-08-19T08:30:03;23.50;95.10
44461;DHT22;30162;53.642;10.640;2022-08-19T08:32:30;23.60;94.90
44461;DHT22;30162;53.642;10.640;2022-08-19T08:34:55;23.70;94.80
44461;DHT22;30162;53.642;10.640;2022-08-19T08:37:21;23.70;94.50
44461;DHT22;30162;53.642;10.640;2022-08-19T08:39:47;23.80;94.60
44461;DHT22;30162;53.642;10.640;2022-08-19T08:42:28;23.70;94.60
44461;DHT22;30162;53.642;10.640;2022-08-19T08:45:08;23.70;94.50
44461;DHT22;30162;53.642;10.640;2022-08-19T08:47:42;23.70;94.80
44461;DHT22;30162;53.642;10.640;2022-08-19T08:50:25;23.70;94.90
44461;DHT22;30162;53.642;10.640;2022-08-19T08:52:56;23.80;94.70
44461;DHT22;30162;53.642;10.640;2022-08-19T08:55:25;23.80;94.70
44461;DHT22;30162;53.642;10.640;2022-08-19T08:57:59;23.80;94.80
44461;DHT22;30162;53.642;10.640;2022-08-19T09:00:36;23.80;94.70
44461;DHT22;30162;53.642;10.640;2022-08-19T09:03:03;23.90;94.60
44461;DHT22;30162;53.642;10.640;2022-08-19T09:05:55;23.90;94.70
44461;DHT22;30162;53.642;10.640;2022-08-19T09:08:32;23.90;94.70
44461;DHT22;30162;53.642;10.640;2022-08-19T09:10:58;23.90;94.30
44461;DHT22;30162;53.642;10.640;2022-08-19T09:16:07;23.90;94.70
44461;DHT22;30162;53.642;10.640;2022-08-19T09:18:49;23.90;94.60
44461;DHT22;30162;53.642;10.640;2022-08-19T09:21:17;24.00;94.70
44461;DHT22;30162;53.642;10.640;2022-08-19T09:23:43;24.10;94.50
44461;DHT22;30162;53.642;10.640;2022-08-19T09:26:14;24.00;94.60
44461;DHT22;30162;53.642;10.640;2022-08-19T09:28:41;24.10;94.50
44461;DHT22;30162;53.642;10.640;2022-08-19T09:31:29;23.90;94.40
44461;DHT22;30162;53.642;10.640;2022-08-19T09:33:55;23.90;94.40
44461;DHT22;30162;53.642;10.640;2022-08-19T09:36:23;24.00;94.50
44461;DHT22;30162;53.642;10.640;2022-08-19T09:38:50;24.00;94.60
44461;DHT22;30162;53.642;10.640;2022-08-19T09:41:19;24.10;94.50
44461;DHT22;30162;53.642;10.640;2022-08-19T09:43:46;24.10;94.60
44461;DHT22;30162;53.642;10.640;2022-08-19T09:46:12;24.30;94.40
44461;DHT22;30162;53.642;10.640;2022-08-19T09:48:39;24.40;94.40
44461;DHT22;30162;53.642;10.640;2022-08-19T09:51:11;24.40;94.30
44461;DHT22;30162;53.642;10.640;2022-08-19T09:53:41;24.30;94.10
44461;DHT22;30162;53.642;10.640;2022-08-19T09:56:07;24.30;94.10
44461;DHT22;30162;53.642;10.640;2022-08-19T09:58:33;24.40;94.00
44461;DHT22;30162;53.642;10.640;2022-08-19T10:01:00;24.30;94.10
44461;DHT22;30162;53.642;10.640;2022-08-19T10:03:28;24.30;94.20
44461;DHT22;30162;53.642;10.640;2022-08-19T10:05:55;24.30;94.40
44461;DHT22;30162;53.642;10.640;2022-08-19T10:08:25;24.40;94.40
44461;DHT22;30162;53.642;10.640;2022-08-19T10:10:51;24.60;94.10
44461;DHT22;30162;53.642;10.640;2022-08-19T10:13:20;24.50;94.00
44461;DHT22;30162;53.642;10.640;2022-08-19T10:15:49;24.30;94.10
44461;DHT22;30162;53.642;10.640;2022-08-19T10:18:20;24.40;94.20
44461;DHT22;30162;53.642;10.640;2022-08-19T10:20:47;24.50;94.00
44461;DHT22;30162;53.642;10.640;2022-08-19T10:23:14;24.40;93.90
44461;DHT22;30162;53.642;10.640;2022-08-19T10:25:41;24.40;93.90
44461;DHT22;30162;53.642;10.640;2022-08-19T10:28:07;24.40;93.90
44461;DHT22;30162;53.642;10.640;2022-08-19T10:30:34;24.30;93.80
44461;DHT22;30162;53.642;10.640;2022-08-19T10:33:00;24.40;94.00
44461;DHT22;30162;53.642;10.640;2022-08-19T10:35:26;24.40;93.60
44461;DHT22;30162;53.642;10.640;2022-08-19T10:37:53;24.30;93.60
44461;DHT22;30162;53.642;10.640;2022-08-19T10:40:19;24.30;93.70
44461;DHT22;30162;53.642;10.640;2022-08-19T10:42:44;24.10;94.00
44461;DHT22;30162;53.642;10.640;2022-08-19T10:45:10;24.20;94.10
44461;DHT22;30162;53.642;10.640;2022-08-19T10:47:36;24.20;93.90
44461;DHT22;30162;53.642;10.640;2022-08-19T10:50:02;24.30;93.90
44461;DHT22;30162;53.642;10.640;2022-08-19T10:52:48;24.30;93.80
44461;DHT22;30162;53.642;10.640;2022-08-19T10:55:14;24.40;93.90
44461;DHT22;30162;53.642;10.640;2022-08-19T10:57:58;24.30;93.70
44461;DHT22;30162;53.642;10.640;2022-08-19T11:00:24;24.40;93.80
44461;DHT22;30162;53.642;10.640;2022-08-19T11:02:51;24.40;93.90
44461;DHT22;30162;53.642;10.640;2022-08-19T11:05:17;24.40;93.80
44461;DHT22;30162;53.642;10.640;2022-08-19T11:07:43;24.30;93.90
44461;DHT22;30162;53.642;10.640;2022-08-19T11:10:11;24.30;94.00
44461;DHT22;30162;53.642;10.640;2022-08-19T11:12:38;24.30;94.30
44461;DHT22;30162;53.642;10.640;2022-08-19T11:15:06;24.30;94.40
44461;DHT22;30162;53.642;10.640;2022-08-19T11:17:32;24.20;94.80
44461;DHT22;30162;53.642;10.640;2022-08-19T11:19:58;24.30;94.90
44461;DHT22;30162;53.642;10.640;2022-08-19T11:22:27;24.30;95.00
44461;DHT22;30162;53.642;10.640;2022-08-19T11:24:52;24.50;94.90
44461;DHT22;30162;53.642;10.640;2022-08-19T11:27:18;24.60;94.90
44461;DHT22;30162;53.642;10.640;2022-08-19T11:29:43;24.70;94.80
44461;DHT22;30162;53.642;10.640;2022-08-19T11:32:10;24.70;94.60
44461;DHT22;30162;53.642;10.640;2022-08-19T11:34:36;24.80;94.70
44461;DHT22;30162;53.642;10.640;2022-08-19T11:37:03;24.80;94.70
44461;DHT22;30162;53.642;10.640;2022-08-19T11:39:31;24.80;94.70
44461;DHT22;30162;53.642;10.640;2022-08-19T11:42:01;24.80;94.50
44461;DHT22;30162;53.642;10.640;2022-08-19T11:44:49;24.80;94.50
44461;DHT22;30162;53.642;10.640;2022-08-19T11:47:15;24.60;94.90
44461;DHT22;30162;53.642;10.640;2022-08-19T11:49:41;24.70;94.70
44461;DHT22;30162;53.642;10.640;2022-08-19T11:52:07;24.80;94.60
44461;DHT22;30162;53.642;10.640;2022-08-19T11:54:33;24.80;94.70
44461;DHT22;30162;53.642;10.640;2022-08-19T11:56:58;24.90;94.70
44461;DHT22;30162;53.642;10.640;2022-08-19T11:59:24;25.00;94.50
44461;DHT22;30162;53.642;10.640;2022-08-19T12:01:52;24.90;94.80
44461;DHT22;30162;53.642;10.640;2022-08-19T12:04:17;24.90;94.70
44461;DHT22;30162;53.642;10.640;2022-08-19T12:06:42;25.00;94.70
44461;DHT22;30162;53.642;10.640;2022-08-19T12:09:09;25.10;94.70
44461;DHT22;30162;53.642;10.640;2022-08-19T12:11:36;25.10;94.30
44461;DHT22;30162;53.642;10.640;2022-08-19T12:14:02;25.20;94.70
44461;DHT22;30162;53.642;10.640;2022-08-19T12:16:29;25.30;94.70
44461;DHT22;30162;53.642;10.640;2022-08-19T12:18:56;25.40;94.40
44461;DHT22;30162;53.642;10.640;2022-08-19T12:21:24;25.40;94.20
44461;DHT22;30162;53.642;10.640;2022-08-19T12:23:54;25.40;94.10
44461;DHT22;30162;53.642;10.640;2022-08-19T12:26:20;25.50;93.90
44461;DHT22;30162;53.642;10.640;2022-08-19T12:28:46;25.40;93.80
44461;DHT22;30162;53.642;10.640;2022-08-19T12:31:13;25.20;93.80
44461;DHT22;30162;53.642;10.640;2022-08-19T12:33:40;25.10;93.90
44461;DHT22;30162;53.642;10.640;2022-08-19T12:36:08;25.20;94.10
44461;DHT22;30162;53.642;10.640;2022-08-19T12:38:33;25.20;94.40
44461;DHT22;30162;53.642;10.640;2022-08-19T12:41:00;25.40;93.90
44461;DHT22;30162;53.642;10.640;2022-08-19T12:43:26;25.50;93.70
44461;DHT22;30162;53.642;10.640;2022-08-19T12:45:52;25.60;93.70
44461;DHT22;30162;53.642;10.640;2022-08-19T12:48:17;25.60;93.70
44461;DHT22;30162;53.642;10.640;2022-08-19T12:50:44;25.80;93.70
44461;DHT22;30162;53.642;10.640;2022-08-19T12:53:11;25.80;93.60
44461;DHT22;30162;53.642;10.640;2022-08-19T12:55:37;25.80;93.40
44461;DHT22;30162;53.642;10.640;2022-08-19T12:58:03;25.90;93.20
44461;DHT22;30162;53.642;10.640;2022-08-19T13:00:29;25.90;93.20
44461;DHT22;30162;53.642;10.640;2022-08-19T13:02:55;25.80;93.10
44461;DHT22;30162;53.642;10.640;2022-08-19T13:05:23;25.70;93.10
44461;DHT22;30162;53.642;10.640;2022-08-19T13:07:51;25.80;93.10
44461;DHT22;30162;53.642;10.640;2022-08-19T13:10:19;25.80;93.10
44461;DHT22;30162;53.642;10.640;2022-08-19T13:12:48;26.00;93.10
44461;DHT22;30162;53.642;10.640;2022-08-19T13:15:15;25.90;93.10
44461;DHT22;30162;53.642;10.640;2022-08-19T13:17:43;25.80;93.00
44461;DHT22;30162;53.642;10.640;2022-08-19T13:20:10;25.80;93.20
44461;DHT22;30162;53.642;10.640;2022-08-19T13:22:37;25.70;93.00
44461;DHT22;30162;53.642;10.640;2022-08-19T13:25:06;25.90;92.90
44461;DHT22;30162;53.642;10.640;2022-08-19T13:27:32;26.00;92.50
44461;DHT22;30162;53.642;10.640;2022-08-19T13:29:58;26.10;92.60
44461;DHT22;30162;53.642;10.640;2022-08-19T13:32:42;26.00;92.40
44461;DHT22;30162;53.642;10.640;2022-08-19T13:35:26;26.00;92.90
44461;DHT22;30162;53.642;10.640;2022-08-19T13:37:52;25.90;93.10
44461;DHT22;30162;53.642;10.640;2022-08-19T13:40:21;26.10;92.80
44461;DHT22;30162;53.642;10.640;2022-08-19T13:42:51;26.30;92.70
44461;DHT22;30162;53.642;10.640;2022-08-19T13:45:19;26.40;92.50
44461;DHT22;30162;53.642;10.640;2022-08-19T13:47:47;26.50;92.70
44461;DHT22;30162;53.642;10.640;2022-08-19T13:50:16;26.60;92.50
44461;DHT22;30162;53.642;10.640;2022-08-19T13:52:42;26.70;92.40
44461;DHT22;30162;53.642;10.640;2022-08-19T13:55:10;26.70;91.90
44461;DHT22;30162;53.642;10.640;2022-08-19T13:57:36;26.80;91.90
44461;DHT22;30162;53.642;10.640;2022-08-19T14:00:07;26.60;92.10
44461;DHT22;30162;53.642;10.640;2022-08-19T14:02:35;26.60;92.30
44461;DHT22;30162;53.642;10.640;2022-08-19T14:05:03;26.50;91.80
44461;DHT22;30162;53.642;10.640;2022-08-19T14:07:29;26.50;91.60
44461;DHT22;30162;53.642;10.640;2022-08-19T14:09:54;26.50;91.80
44461;DHT22;30162;53.642;10.640;2022-08-19T14:12:21;26.60;92.00
44461;DHT22;30162;53.642;10.640;2022-08-19T14:14:47;26.80;91.70
44461;DHT22;30162;53.642;10.640;2022-08-19T14:17:12;26.80;91.60
44461;DHT22;30162;53.642;10.640;2022-08-19T14:19:38;26.80;91.70
44461;DHT22;30162;53.642;10.640;2022-08-19T14:22:03;26.80;91.50
44461;DHT22;30162;53.642;10.640;2022-08-19T14:24:29;26.90;91.70
44461;DHT22;30162;53.642;10.640;2022-08-19T14:26:55;27.00;91.60
44461;DHT22;30162;53.642;10.640;2022-08-19T14:29:22;27.20;91.40
44461;DHT22;30162;53.642;10.640;2022-08-19T14:31:47;27.60;91.20
44461;DHT22;30162;53.642;10.640;2022-08-19T14:34:13;27.90;90.90
44461;DHT22;30162;53.642;10.640;2022-08-19T14:36:39;28.10;90.40
44461;DHT22;30162;53.642;10.640;2022-08-19T14:39:04;28.10;90.20
44461;DHT22;30162;53.642;10.640;2022-08-19T14:41:30;28.00;89.40
44461;DHT22;30162;53.642;10.640;2022-08-19T14:43:56;27.80;90.20
44461;DHT22;30162;53.642;10.640;2022-08-19T14:46:26;27.70;90.40
44461;DHT22;30162;53.642;10.640;2022-08-19T14:48:54;27.60;90.00
44461;DHT22;30162;53.642;10.640;2022-08-19T14:51:21;27.50;90.60
44461;DHT22;30162;53.642;10.640;2022-08-19T14:53:47;27.30;90.80
44461;DHT22;30162;53.642;10.640;2022-08-19T14:56:22;27.30;91.20
44461;DHT22;30162;53.642;10.640;2022-08-19T14:58:48;27.40;91.20
44461;DHT22;30162;53.642;10.640;2022-08-19T15:01:17;27.50;90.90
44461;DHT22;30162;53.642;10.640;2022-08-19T15:03:43;27.50;90.90
44461;DHT22;30162;53.642;10.640;2022-08-19T15:06:09;27.50;90.80
44461;DHT22;30162;53.642;10.640;2022-08-19T15:08:35;27.60;90.70
44461;DHT22;30162;53.642;10.640;2022-08-19T15:11:02;27.70;90.60
44461;DHT22;30162;53.642;10.640;2022-08-19T15:13:29;27.70;90.40
44461;DHT22;30162;53.642;10.640;2022-08-19T15:15:55;27.80;90.30
44461;DHT22;30162;53.642;10.640;2022-08-19T15:18:22;27.60;90.30
44461;DHT22;30162;53.642;10.640;2022-08-19T15:20:48;27.60;90.30
44461;DHT22;30162;53.642;10.640;2022-08-19T15:23:15;27.40;90.60